Terminal Aerodrome Forecast
Issued by NWS San Angelo, TX

Home | Current Version | Previous Version | Text Only | Print | Product List | Glossary On
Versions: 1 2 3 4 5 6 7 8 9 10 11 12 13 14 15 16 17 18 19 20 21 22 23
000
FTUS44 KSJT 281600 AAC
TAFABI
TAF AMD
KABI 281648Z 2817/0112 VRB06KT 2SM -FZDZ BR OVC004
     FM282100 14010KT P6SM OVC010
     FM010400 12010KT 3SM -FZDZ BR OVC008=

USA.gov is the U.S. government's official web portal to all federal, state and local government web resources and services.